createdAt,value
2023-03-21T00:00:27.860Z,2757.00
2023-03-21T00:01:27.855Z,2771.00
2023-03-21T00:02:27.863Z,2775.00
2023-03-21T00:03:27.825Z,2773.00
2023-03-21T00:04:33.138Z,2759.00
2023-03-21T00:05:28.861Z,2760.00
2023-03-21T00:06:27.734Z,2761.00
2023-03-21T00:07:27.721Z,2761.00
2023-03-21T00:08:27.673Z,2737.00
2023-03-21T00:09:27.653Z,2744.00
2023-03-21T00:10:39.496Z,2741.00
2023-03-21T00:11:28.594Z,2741.00
2023-03-21T00:12:27.581Z,2731.00
2023-03-21T00:13:27.545Z,2741.00
2023-03-21T00:14:27.555Z,2740.00
2023-03-21T00:16:33.614Z,2742.00
2023-03-21T00:17:28.465Z,2742.00
2023-03-21T00:18:27.439Z,2743.00
2023-03-21T00:19:27.408Z,2742.00
2023-03-21T00:20:27.401Z,2732.00
2023-03-21T00:21:44.328Z,2711.00
2023-03-21T00:22:28.360Z,2740.00
2023-03-21T00:23:27.308Z,2737.00
2023-03-21T00:24:27.317Z,2744.00
2023-03-21T00:25:27.280Z,2743.00
2023-03-21T00:26:27.281Z,2729.00
2023-03-21T00:27:47.304Z,2735.00
2023-03-21T00:28:28.268Z,2736.00
2023-03-21T01:54:24.921Z,2554.00
2023-03-21T01:55:24.828Z,2563.00
2023-03-21T01:56:24.789Z,2557.00
2023-03-21T01:57:30.003Z,2546.00
2023-03-21T01:58:25.776Z,2547.00
2023-03-21T01:59:24.761Z,2549.00
2023-03-21T02:00:24.676Z,2547.00
2023-03-21T02:01:24.713Z,2549.00
2023-03-21T02:02:24.639Z,2538.00
2023-03-21T02:03:35.281Z,2535.00
2023-03-21T02:04:25.640Z,2536.00
2023-03-21T02:05:24.558Z,2538.00
2023-03-21T02:06:24.556Z,2538.00
2023-03-21T02:07:24.549Z,2534.00
2023-03-21T02:08:36.842Z,2550.00
2023-03-21T02:09:25.455Z,2536.00
2023-03-21T02:10:24.445Z,2537.00
2023-03-21T02:11:24.416Z,2544.00
2023-03-21T02:12:24.415Z,2545.00
2023-03-21T02:13:24.383Z,2544.00
2023-03-21T02:14:29.217Z,2540.00
2023-03-21T02:15:25.353Z,2541.00
2023-03-21T02:16:24.331Z,2540.00
2023-03-21T02:17:24.278Z,2539.00
2023-03-21T02:18:24.290Z,2549.00
2023-03-21T02:19:31.941Z,2537.00
2023-03-21T02:20:25.266Z,2541.00
2023-03-21T02:21:24.194Z,2534.00
2023-03-21T02:22:24.165Z,2538.00
2023-03-21T02:23:24.181Z,2518.00
2023-03-21T02:24:24.127Z,2516.00
2023-03-21T02:25:24.115Z,2528.00
2023-03-21T02:26:26.470Z,2511.00
2023-03-21T02:27:24.073Z,2511.00
2023-03-21T02:28:24.067Z,2512.00
2023-03-21T02:29:24.031Z,2498.00
2023-03-21T02:30:37.531Z,2499.00
2023-03-21T02:31:25.092Z,2512.00
2023-03-21T02:32:36.683Z,2499.00
2023-03-21T02:33:24.962Z,2511.00
2023-03-21T02:34:23.936Z,2509.00
2023-03-21T02:35:23.896Z,2502.00
2023-03-21T02:36:23.917Z,2499.00
2023-03-21T02:37:36.734Z,2492.00
2023-03-21T02:38:24.826Z,2512.00
2023-03-21T02:39:23.784Z,2504.00
2023-03-21T02:40:23.778Z,2513.00
2023-03-21T02:41:25.427Z,2511.00
2023-03-21T02:42:23.755Z,2511.00
2023-03-21T02:43:24.097Z,2512.00
2023-03-21T02:44:23.680Z,2496.00
2023-03-21T02:45:23.633Z,2504.00
2023-03-21T02:46:28.312Z,2500.00
2023-03-21T02:47:24.639Z,2511.00
2023-03-21T02:48:29.317Z,2496.00
2023-03-21T02:49:24.546Z,2492.00
2023-03-21T02:50:23.535Z,2451.00
2023-03-21T02:51:23.482Z,2395.00
2023-03-21T02:52:35.879Z,2372.00
2023-03-21T02:53:24.488Z,2342.00
2023-03-21T02:54:34.956Z,2318.00
2023-03-21T02:55:23.395Z,2322.00
2023-03-21T02:56:23.370Z,2293.00
2023-03-21T02:57:27.027Z,2270.00
2023-03-21T02:58:24.332Z,2267.00
2023-03-21T02:59:23.300Z,2225.00
2023-03-21T03:00:23.272Z,2220.00
2023-03-21T03:01:23.325Z,2204.00
2023-03-21T03:02:23.237Z,2169.00
2023-03-21T03:03:33.381Z,2172.00
2023-03-21T03:04:24.210Z,2172.00
2023-03-21T03:05:23.197Z,2146.00
2023-03-21T03:06:23.172Z,2140.00
2023-03-21T03:07:23.161Z,2113.00
2023-03-21T03:08:35.751Z,2111.00
2023-03-21T03:09:24.133Z,2114.00
2023-03-21T03:10:23.114Z,2083.00
2023-03-21T03:11:23.136Z,2067.00
2023-03-21T03:12:23.077Z,2040.00
2023-03-21T03:13:23.073Z,2017.00
2023-03-21T03:14:41.947Z,2010.00
2023-03-21T03:15:24.053Z,2010.00
2023-03-21T03:16:23.065Z,1956.00
2023-03-21T03:17:23.038Z,1955.00
2023-03-21T03:18:23.005Z,1947.00
2023-03-21T03:19:23.000Z,1933.00
2023-03-21T03:20:23.008Z,1914.00
2023-03-21T03:21:22.966Z,1896.00
2023-03-21T03:22:22.969Z,1900.00
2023-03-21T03:23:22.948Z,1879.00
2023-03-21T03:24:22.915Z,1873.00
2023-03-21T03:25:35.774Z,1878.00
2023-03-21T03:26:23.914Z,1878.00
2023-03-21T03:27:22.878Z,1881.00
2023-03-21T03:28:22.868Z,1879.00
2023-03-21T03:29:22.860Z,1882.00
2023-03-21T03:30:25.488Z,1870.00
2023-03-21T03:31:23.910Z,1878.00
2023-03-21T03:32:22.809Z,1857.00
2023-03-21T03:33:22.812Z,1863.00
2023-03-21T03:34:22.803Z,1873.00
2023-03-21T03:35:22.765Z,1872.00
2023-03-21T03:36:31.727Z,1869.00
2023-03-21T03:37:23.754Z,1869.00
2023-03-21T03:38:22.732Z,1870.00
2023-03-21T03:39:22.718Z,1874.00
2023-03-21T03:40:22.714Z,1886.00
2023-03-21T03:41:22.717Z,1896.00
2023-03-21T03:42:28.502Z,1898.00
2023-03-21T03:43:22.683Z,1899.00
2023-03-21T03:44:22.692Z,1902.00
2023-03-21T03:45:22.651Z,1911.00
2023-03-21T03:46:22.703Z,1926.00
2023-03-21T03:47:32.378Z,1924.00
2023-03-21T03:48:23.627Z,1900.00
2023-03-21T03:49:22.618Z,1903.00
2023-03-21T03:50:22.594Z,1899.00
2023-03-21T03:51:22.595Z,1902.00
2023-03-21T03:52:22.591Z,1905.00
2023-03-21T03:53:22.572Z,1888.00
2023-03-21T03:54:22.609Z,1896.00
2023-03-21T03:55:22.566Z,1894.00
2023-03-21T03:56:22.560Z,1857.00
2023-03-21T03:57:22.564Z,1841.00
2023-03-21T03:58:24.811Z,1859.00
2023-03-21T03:59:23.571Z,1859.00
2023-03-21T04:00:22.542Z,1860.00
2023-03-21T04:01:22.541Z,1833.00
2023-03-21T04:02:22.580Z,1853.00
2023-03-21T04:03:22.572Z,1848.00
2023-03-21T04:04:22.536Z,1874.00
2023-03-21T04:05:22.513Z,1858.00
2023-03-21T04:06:22.504Z,1866.00
2023-03-21T04:07:22.513Z,1879.00
2023-03-21T04:08:22.474Z,1864.00
2023-03-21T04:09:34.089Z,1862.00
2023-03-21T04:10:23.472Z,1864.00
2023-03-21T04:11:22.447Z,1868.00
2023-03-21T04:12:22.447Z,1874.00
2023-03-21T04:13:22.454Z,1892.00
2023-03-21T04:14:22.487Z,1902.00
2023-03-21T04:15:22.439Z,1921.00
2023-03-21T04:16:22.470Z,1905.00
2023-03-21T04:17:22.404Z,1908.00
2023-03-21T04:18:22.376Z,1878.00
2023-03-21T04:19:22.391Z,1904.00
2023-03-21T04:20:34.217Z,1922.00
2023-03-21T04:21:23.375Z,1922.00
2023-03-21T04:22:22.377Z,1922.00
2023-03-21T04:23:22.362Z,1924.00
2023-03-21T04:24:22.336Z,1908.00
2023-03-21T04:25:32.708Z,1926.00
2023-03-21T04:26:23.327Z,1923.00
2023-03-21T04:27:22.338Z,1927.00
2023-03-21T04:28:22.337Z,1926.00
2023-03-21T04:29:22.307Z,1935.00
2023-03-21T04:30:22.310Z,1952.00
2023-03-21T04:31:25.899Z,1944.00
2023-03-21T04:32:22.279Z,1945.00
2023-03-21T04:33:22.300Z,1947.00
2023-03-21T04:34:22.280Z,1955.00
2023-03-21T04:35:22.271Z,1968.00
2023-03-21T04:36:22.270Z,1977.00
2023-03-21T04:37:22.274Z,1985.00
2023-03-21T04:38:22.250Z,1984.00
2023-03-21T04:39:22.244Z,2007.00
2023-03-21T04:40:22.250Z,1976.00
2023-03-21T04:41:22.242Z,1992.00
2023-03-21T04:42:22.235Z,2009.00
2023-03-21T04:43:22.230Z,1994.00
2023-03-21T04:44:22.229Z,1999.00
2023-03-21T04:45:22.231Z,2002.00
2023-03-21T04:46:22.199Z,2020.00
2023-03-21T04:47:22.219Z,1987.00
2023-03-21T04:48:22.185Z,1995.00
2023-03-21T04:49:22.193Z,1978.00
2023-03-21T04:50:22.200Z,1987.00
2023-03-21T04:51:22.180Z,1965.00
2023-03-21T04:52:23.784Z,1964.00
2023-03-21T04:53:22.180Z,1965.00
2023-03-21T04:54:22.158Z,1968.00
2023-03-21T04:55:22.165Z,1966.00
2023-03-21T04:56:22.169Z,1981.00
2023-03-21T04:57:22.181Z,1955.00
2023-03-21T04:58:22.144Z,1977.00
2023-03-21T04:59:22.162Z,1979.00
2023-03-21T05:00:22.145Z,1984.00
2023-03-21T05:01:22.157Z,1995.00
2023-03-21T05:02:22.145Z,1985.00
2023-03-21T05:03:22.140Z,1991.00
2023-03-21T05:04:22.156Z,2004.00
2023-03-21T05:05:22.155Z,2006.00
2023-03-21T05:06:22.160Z,2008.00
2023-03-21T05:07:22.144Z,2018.00
2023-03-21T05:08:22.121Z,2019.00
2023-03-21T05:09:22.138Z,2018.00
2023-03-21T05:10:22.130Z,2002.00
2023-03-21T05:11:22.116Z,2022.00
2023-03-21T05:12:22.122Z,1996.00
2023-03-21T05:13:22.127Z,1997.00
2023-03-21T05:14:22.133Z,1993.00
2023-03-21T05:15:22.137Z,1961.00
2023-03-21T05:16:22.175Z,1955.00
2023-03-21T05:17:22.164Z,1930.00
2023-03-21T05:18:22.131Z,1927.00
2023-03-21T05:19:22.129Z,1931.00
2023-03-21T05:20:22.142Z,1891.00
2023-03-21T05:21:22.142Z,1876.00
2023-03-21T05:22:22.135Z,1867.00
2023-03-21T05:23:22.156Z,1866.00
2023-03-21T05:24:22.145Z,1849.00
2023-03-21T05:25:22.152Z,1841.00
2023-03-21T05:26:22.119Z,1820.00
2023-03-21T05:27:22.121Z,1818.00
2023-03-21T05:28:22.121Z,1821.00
2023-03-21T05:29:22.146Z,1797.00
2023-03-21T05:30:22.114Z,1808.00
2023-03-21T05:31:22.159Z,1787.00
2023-03-21T05:32:22.166Z,1802.00
2023-03-21T05:33:22.093Z,1798.00
2023-03-21T05:34:22.079Z,1789.00
2023-03-21T05:35:22.093Z,1805.00
2023-03-21T05:36:22.077Z,1824.00
2023-03-21T05:37:22.101Z,1844.00
2023-03-21T05:38:22.058Z,1832.00
2023-03-21T05:39:22.080Z,1852.00
2023-03-21T05:40:22.095Z,1860.00
2023-03-21T05:41:22.121Z,1881.00
2023-03-21T05:42:22.038Z,1863.00
2023-03-21T05:43:22.027Z,1882.00
2023-03-21T05:44:22.067Z,1913.00
2023-03-21T05:45:22.037Z,1939.00
2023-03-21T05:46:22.145Z,1942.00
2023-03-21T05:47:22.018Z,1967.00
2023-03-21T05:48:22.089Z,1958.00
2023-03-21T05:49:22.084Z,1976.00
2023-03-21T05:50:21.997Z,1990.00
2023-03-21T05:51:22.050Z,2007.00
2023-03-21T05:52:21.994Z,2009.00
2023-03-21T05:53:23.259Z,2023.00
2023-03-21T05:54:21.994Z,2031.00
2023-03-21T05:55:21.961Z,2044.00
2023-03-21T05:56:21.972Z,2033.00
2023-03-21T05:57:21.952Z,2035.00
2023-03-21T05:58:21.942Z,2040.00
2023-03-21T05:59:21.989Z,2056.00
2023-03-21T06:00:21.977Z,2072.00
2023-03-21T06:01:21.935Z,2069.00
2023-03-21T06:02:21.957Z,2074.00
2023-03-21T06:03:22.594Z,2084.00
2023-03-21T06:04:21.916Z,2079.00
2023-03-21T06:05:21.893Z,2089.00
2023-03-21T06:06:21.895Z,2108.00
2023-03-21T06:07:21.876Z,2105.00
2023-03-21T06:08:21.890Z,2099.00
2023-03-21T06:09:21.872Z,2129.00
2023-03-21T06:10:21.854Z,2105.00
2023-03-21T06:11:21.853Z,2124.00
2023-03-21T06:12:21.832Z,2116.00
2023-03-21T06:13:21.826Z,2127.00
2023-03-21T06:14:21.820Z,2129.00
2023-03-21T06:15:21.794Z,2141.00
2023-03-21T06:16:21.839Z,2142.00
2023-03-21T06:17:21.762Z,2130.00
2023-03-21T06:18:21.763Z,2123.00
2023-03-21T06:19:21.749Z,2106.00
2023-03-21T06:20:21.768Z,2082.00
2023-03-21T06:21:21.748Z,2085.00
2023-03-21T06:22:21.761Z,2074.00
2023-03-21T06:23:21.721Z,2059.00
2023-03-21T06:24:21.751Z,2064.00
2023-03-21T06:25:21.707Z,2023.00
2023-03-21T06:26:21.690Z,2030.00
2023-03-21T06:27:21.713Z,2031.00
2023-03-21T06:28:21.819Z,2032.00
2023-03-21T06:29:21.696Z,2031.00
2023-03-21T06:30:21.724Z,2036.00
2023-03-21T06:31:21.717Z,2049.00
2023-03-21T06:32:21.697Z,2030.00
2023-03-21T06:33:22.569Z,2027.00
2023-03-21T06:34:21.691Z,2026.00
2023-03-21T06:35:21.972Z,2029.00
2023-03-21T06:36:21.646Z,2012.00
2023-03-21T06:37:21.634Z,2036.00
2023-03-21T06:38:21.594Z,2040.00
2023-03-21T06:39:21.650Z,2058.00
2023-03-21T06:40:22.503Z,2063.00
2023-03-21T06:41:21.571Z,2146.00
2023-03-21T06:42:21.577Z,2159.00
2023-03-21T06:43:21.564Z,2175.00
2023-03-21T06:44:21.553Z,2193.00
2023-03-21T06:45:21.571Z,2229.00
2023-03-21T06:46:22.632Z,2230.00
2023-03-21T06:47:21.636Z,2233.00
2023-03-21T06:48:21.603Z,2242.00
2023-03-21T06:49:21.518Z,2236.00
2023-03-21T06:50:21.495Z,2255.00
2023-03-21T06:51:21.502Z,2291.00
2023-03-21T06:52:21.710Z,2278.00
2023-03-21T06:53:21.491Z,2124.00
2023-03-21T06:54:21.495Z,1992.00
2023-03-21T06:55:21.478Z,1917.00
2023-03-21T06:56:21.427Z,1795.00
2023-03-21T06:57:21.660Z,1718.00
2023-03-21T06:58:21.441Z,1651.00
2023-03-21T06:59:21.449Z,1652.00
2023-03-21T07:00:21.449Z,1611.00
2023-03-21T07:01:21.498Z,1561.00
2023-03-21T07:02:21.566Z,1523.00
2023-03-21T07:03:21.606Z,1498.00
2023-03-21T07:04:21.512Z,1460.00
2023-03-21T07:05:21.798Z,1387.00
2023-03-21T07:06:21.551Z,1329.00
2023-03-21T07:07:21.992Z,1272.00
2023-03-21T07:08:21.621Z,1207.00
2023-03-21T07:09:21.559Z,1172.00
2023-03-21T07:10:21.609Z,1124.00
2023-03-21T07:11:21.688Z,1067.00
2023-03-21T07:12:22.565Z,1045.00
2023-03-21T07:13:21.726Z,1017.00
2023-03-21T07:14:21.661Z,1010.00
2023-03-21T07:15:21.722Z,953.00
2023-03-21T07:16:21.886Z,892.00
2023-03-21T07:17:21.739Z,878.00
2023-03-21T07:18:21.711Z,846.00
2023-03-21T07:19:22.641Z,820.00
2023-03-21T07:20:21.848Z,783.00
2023-03-21T07:21:22.519Z,802.00
2023-03-21T07:22:21.757Z,944.00
2023-03-21T07:23:21.781Z,1135.00
2023-03-21T07:24:21.991Z,1278.00
2023-03-21T07:25:21.849Z,1333.00
2023-03-21T07:26:21.806Z,1424.00
2023-03-21T07:27:22.017Z,1521.00
2023-03-21T07:28:21.796Z,1573.00
2023-03-21T07:29:21.847Z,1618.00
2023-03-21T07:30:21.822Z,1638.00
2023-03-21T07:31:22.554Z,1660.00
2023-03-21T07:32:21.844Z,1682.00
2023-03-21T07:33:21.984Z,1697.00
2023-03-21T07:34:21.785Z,1743.00
2023-03-21T07:35:21.820Z,1784.00
2023-03-21T07:36:21.766Z,1777.00
2023-03-21T07:37:21.906Z,1762.00
2023-03-21T07:38:21.860Z,1794.00
2023-03-21T07:39:21.811Z,1806.00
2023-03-21T07:40:21.761Z,1812.00
2023-03-21T07:41:21.859Z,1843.00
2023-03-21T07:42:22.036Z,1847.00
2023-03-21T07:43:21.780Z,1910.00
2023-03-21T07:44:21.885Z,1940.00
2023-03-21T07:45:23.533Z,1944.00
2023-03-21T07:46:22.024Z,1964.00
2023-03-21T07:47:23.532Z,1959.00
2023-03-21T07:48:21.767Z,2006.00
2023-03-21T07:49:21.713Z,1986.00
2023-03-21T07:50:21.703Z,1982.00
2023-03-21T07:51:21.687Z,1995.00
2023-03-21T07:52:21.686Z,2017.00
2023-03-21T07:53:21.673Z,2045.00
2023-03-21T07:54:21.642Z,2058.00
2023-03-21T07:55:22.547Z,2061.00
2023-03-21T07:56:21.780Z,2085.00
2023-03-21T07:57:21.608Z,2107.00
2023-03-21T07:58:21.655Z,2131.00
2023-03-21T07:59:21.695Z,2119.00
2023-03-21T08:00:21.582Z,2116.00
2023-03-21T08:01:24.882Z,2107.00
2023-03-21T08:02:21.694Z,2108.00
2023-03-21T08:03:22.073Z,2085.00
2023-03-21T08:04:21.537Z,2077.00
2023-03-21T08:05:21.505Z,2055.00
2023-03-21T08:06:21.652Z,2036.00
2023-03-21T08:07:21.482Z,2043.00
2023-03-21T08:08:21.962Z,2030.00
2023-03-21T08:09:22.075Z,2008.00
2023-03-21T08:10:22.036Z,2025.00
2023-03-21T08:11:21.535Z,2003.00
2023-03-21T08:12:21.449Z,2005.00
2023-03-21T08:13:21.432Z,1988.00
2023-03-21T08:14:21.414Z,1975.00
2023-03-21T08:15:21.365Z,1949.00
2023-03-21T08:16:21.499Z,1946.00
2023-03-21T08:17:21.350Z,1919.00
2023-03-21T08:18:21.373Z,1943.00
2023-03-21T08:19:22.039Z,1946.00
2023-03-21T08:20:24.031Z,1900.00
2023-03-21T08:21:22.027Z,1901.00
2023-03-21T08:22:21.305Z,1907.00
2023-03-21T08:23:21.351Z,1936.00
2023-03-21T08:24:21.342Z,1965.00
2023-03-21T08:25:21.442Z,2029.00
2023-03-21T08:26:21.308Z,2040.00
2023-03-21T08:27:22.026Z,2050.00
2023-03-21T08:28:21.568Z,2054.00
2023-03-21T08:29:22.173Z,2056.00
2023-03-21T08:30:21.218Z,2058.00
2023-03-21T08:31:22.133Z,2077.00
2023-03-21T08:32:21.260Z,2086.00
2023-03-21T08:33:21.799Z,2123.00
2023-03-21T08:34:21.349Z,2137.00
2023-03-21T08:35:22.156Z,2150.00
2023-03-21T08:36:21.322Z,2155.00
2023-03-21T08:37:22.090Z,2160.00
2023-03-21T08:38:21.272Z,2163.00
2023-03-21T08:39:23.146Z,2214.00
2023-03-21T08:40:21.291Z,2217.00
2023-03-21T08:41:21.254Z,2254.00
2023-03-21T08:42:21.229Z,2317.00
2023-03-21T08:43:20.967Z,2356.00
2023-03-21T08:44:21.242Z,2378.00
2023-03-21T08:45:21.656Z,2417.00
2023-03-21T08:46:20.949Z,2442.00
2023-03-21T08:47:21.565Z,2457.00
2023-03-21T08:48:20.958Z,2447.00
2023-03-21T08:49:20.876Z,2443.00
2023-03-21T08:50:20.843Z,2458.00
2023-03-21T08:51:20.819Z,2481.00
2023-03-21T08:52:21.566Z,2482.00
2023-03-21T08:53:21.729Z,2486.00
2023-03-21T08:54:20.763Z,2495.00
2023-03-21T08:55:20.760Z,2462.00
2023-03-21T08:56:20.730Z,2433.00
2023-03-21T08:57:20.716Z,2473.00
2023-03-21T08:58:20.681Z,2534.00
2023-03-21T08:59:21.274Z,2523.00
2023-03-21T09:00:20.714Z,2554.00
2023-03-21T09:01:20.699Z,2548.00
2023-03-21T09:02:20.621Z,2543.00
2023-03-21T09:03:20.585Z,2549.00
2023-03-21T09:04:20.697Z,2536.00
2023-03-21T09:05:20.562Z,2537.00
2023-03-21T09:06:20.546Z,2543.00
2023-03-21T09:07:20.542Z,2552.00
2023-03-21T09:08:20.481Z,2557.00
2023-03-21T09:09:20.495Z,2556.00
2023-03-21T09:10:22.168Z,2605.00
2023-03-21T09:11:20.421Z,2610.00
2023-03-21T09:12:20.431Z,2607.00
2023-03-21T09:13:20.388Z,2620.00
2023-03-21T09:14:21.920Z,2608.00
2023-03-21T09:15:20.339Z,2629.00
2023-03-21T09:16:20.424Z,2620.00
2023-03-21T09:17:21.296Z,2615.00
2023-03-21T09:18:20.266Z,2614.00
2023-03-21T09:19:20.277Z,2611.00
2023-03-21T09:20:20.248Z,2613.00
2023-03-21T09:21:20.240Z,2611.00
2023-03-21T09:22:20.172Z,2605.00
2023-03-21T09:23:20.174Z,2583.00
2023-03-21T09:24:21.579Z,2573.00
2023-03-21T09:25:20.113Z,2566.00
2023-03-21T09:26:20.148Z,2569.00
2023-03-21T09:27:20.079Z,2548.00
2023-03-21T09:28:20.053Z,2537.00
2023-03-21T09:29:20.117Z,2514.00
2023-03-21T09:30:19.979Z,2530.00
2023-03-21T09:31:20.068Z,2514.00
2023-03-21T09:32:19.956Z,2516.00
2023-03-21T09:33:19.953Z,2517.00
2023-03-21T09:34:20.123Z,2515.00
2023-03-21T09:35:19.860Z,2518.00
2023-03-21T09:36:19.875Z,2526.00
2023-03-21T09:37:19.832Z,2528.00
2023-03-21T09:38:19.788Z,2532.00
2023-03-21T09:39:19.757Z,2501.00
2023-03-21T09:40:19.792Z,2458.00
2023-03-21T09:41:19.723Z,2460.00
2023-03-21T09:42:20.587Z,2461.00
2023-03-21T09:43:20.620Z,2467.00
2023-03-21T09:44:19.669Z,2467.00
2023-03-21T09:45:19.633Z,2485.00
2023-03-21T09:46:19.799Z,2519.00
2023-03-21T09:47:19.571Z,2510.00
2023-03-21T09:48:19.865Z,2511.00
2023-03-21T09:49:19.623Z,2513.00
2023-03-21T09:50:19.617Z,2510.00
2023-03-21T09:51:19.479Z,2499.00
2023-03-21T09:52:19.544Z,2511.00
2023-03-21T09:53:19.639Z,2480.00
2023-03-21T09:54:19.451Z,2481.00
2023-03-21T09:55:19.380Z,2486.00
2023-03-21T09:56:19.311Z,2481.00
2023-03-21T09:57:19.278Z,2449.00
2023-03-21T09:58:19.331Z,2458.00
2023-03-21T09:59:19.230Z,2429.00
2023-03-21T10:00:19.314Z,2404.00
2023-03-21T10:01:19.222Z,2435.00
2023-03-21T10:02:19.148Z,2444.00
2023-03-21T10:03:19.173Z,2441.00
2023-03-21T10:04:19.244Z,2442.00
2023-03-21T10:05:19.607Z,2444.00
2023-03-21T10:06:19.080Z,2448.00
2023-03-21T10:07:19.087Z,2458.00
2023-03-21T10:08:18.993Z,2475.00
2023-03-21T10:09:18.980Z,2480.00
2023-03-21T10:10:19.169Z,2472.00
2023-03-21T10:11:18.935Z,2452.00
2023-03-21T10:12:18.866Z,2455.00
2023-03-21T10:13:18.851Z,2441.00
2023-03-21T10:14:18.791Z,2462.00
2023-03-21T10:15:18.864Z,2480.00
2023-03-21T10:16:18.778Z,2499.00
2023-03-21T10:17:18.729Z,2490.00
2023-03-21T10:18:18.795Z,2473.00
2023-03-21T10:19:18.696Z,2497.00
2023-03-21T10:20:18.699Z,2481.00
2023-03-21T10:22:18.664Z,2460.00
2023-03-21T10:23:18.558Z,2465.00
2023-03-21T10:24:18.595Z,2461.00
2023-03-21T10:25:18.530Z,2466.00
2023-03-21T10:26:20.402Z,2470.00
2023-03-21T10:27:18.499Z,2469.00
2023-03-21T10:28:18.447Z,2484.00
2023-03-21T10:29:18.510Z,2490.00
2023-03-21T10:30:18.411Z,2479.00
2023-03-21T10:31:18.393Z,2453.00
2023-03-21T10:32:18.371Z,2483.00
2023-03-21T10:33:18.394Z,2484.00
2023-03-21T10:34:18.442Z,2487.00
2023-03-21T10:35:18.341Z,2487.00
2023-03-21T10:36:18.200Z,2490.00
2023-03-21T10:37:18.231Z,2444.00
2023-03-21T10:38:18.142Z,2469.00
2023-03-21T10:39:18.200Z,2486.00
2023-03-21T10:40:18.190Z,2478.00
2023-03-21T10:41:18.107Z,2503.00
2023-03-21T10:42:18.594Z,2479.00
2023-03-21T10:43:18.128Z,2423.00
2023-03-21T10:44:17.998Z,2410.00
2023-03-21T10:45:21.115Z,2479.00
2023-03-21T10:46:18.154Z,2483.00
2023-03-21T10:47:18.177Z,2478.00
2023-03-21T10:48:18.079Z,2484.00
2023-03-21T10:49:17.810Z,2493.00
2023-03-21T10:50:17.883Z,2442.00
2023-03-21T10:51:17.782Z,2445.00
2023-03-21T10:52:18.199Z,2434.00
2023-03-21T10:53:17.788Z,2445.00
2023-03-21T10:54:18.116Z,2398.00
2023-03-21T10:57:18.659Z,2401.00
2023-03-21T10:59:20.539Z,2402.00
2023-03-21T11:00:18.990Z,2414.00
2023-03-21T11:01:20.739Z,2424.00
2023-03-21T11:02:17.522Z,2403.00
2023-03-21T11:03:17.491Z,2416.00
2023-03-21T11:04:17.504Z,2439.00
2023-03-21T11:05:20.792Z,2468.00
2023-03-21T11:06:17.422Z,2404.00
2023-03-21T11:07:17.340Z,2417.00
2023-03-21T11:08:17.317Z,2444.00
2023-03-21T11:09:17.299Z,2476.00
2023-03-21T11:10:27.888Z,2555.00
2023-03-21T11:11:19.334Z,2406.00
2023-03-21T11:12:17.255Z,2431.00
2023-03-21T11:13:17.203Z,2477.00
2023-03-21T11:14:17.125Z,2550.00
2023-03-21T11:15:18.702Z,2623.00
2023-03-21T11:16:17.130Z,2406.00
2023-03-21T11:17:17.707Z,2427.00
2023-03-21T11:18:17.014Z,2456.00
2023-03-21T11:19:17.022Z,2507.00
2023-03-21T11:20:17.175Z,2541.00
2023-03-21T11:21:16.928Z,2557.00
2023-03-21T11:22:16.935Z,2541.00
2023-03-21T11:23:18.686Z,2525.00
2023-03-21T11:24:16.858Z,2526.00
2023-03-21T11:25:16.864Z,2512.00
2023-03-21T11:26:16.973Z,2529.00
2023-03-21T11:27:16.807Z,2520.00
2023-03-21T11:28:16.770Z,2509.00
2023-03-21T11:29:18.310Z,2475.00
2023-03-21T11:30:16.726Z,2495.00
2023-03-21T11:31:16.712Z,2468.00
2023-03-21T11:32:16.628Z,2500.00
2023-03-21T11:33:17.121Z,2468.00
2023-03-21T11:34:16.562Z,2478.00
2023-03-21T11:35:18.298Z,2485.00
2023-03-21T11:36:16.539Z,2485.00
2023-03-21T11:37:16.526Z,2486.00
2023-03-21T11:38:16.518Z,2477.00
2023-03-21T11:39:16.405Z,2472.00
2023-03-21T11:40:17.159Z,2466.00
2023-03-21T11:41:18.469Z,2462.00
2023-03-21T11:42:16.524Z,2437.00
2023-03-21T11:43:16.516Z,2420.00
2023-03-21T11:44:16.458Z,2434.00
2023-03-21T11:45:16.496Z,2454.00
2023-03-21T11:46:17.064Z,2472.00
2023-03-21T11:47:19.632Z,2503.00
2023-03-21T11:48:16.411Z,2527.00
2023-03-21T11:49:16.318Z,2522.00
2023-03-21T11:50:16.309Z,2532.00
2023-03-21T11:51:16.279Z,2537.00
2023-03-21T11:52:17.198Z,2540.00
2023-03-21T11:53:16.154Z,2560.00
2023-03-21T11:54:16.124Z,2577.00
2023-03-21T11:56:16.097Z,2598.00
2023-03-21T11:57:19.253Z,2604.00
2023-03-21T11:58:16.009Z,2598.00
2023-03-21T11:59:15.966Z,2606.00
2023-03-21T12:00:16.085Z,2625.00
2023-03-21T12:01:16.199Z,2647.00
2023-03-21T12:02:15.887Z,2683.00
2023-03-21T12:03:16.060Z,2674.00
2023-03-21T12:04:15.816Z,2665.00
2023-03-21T12:05:19.125Z,2658.00
2023-03-21T12:06:16.006Z,2660.00
2023-03-21T12:07:15.633Z,2661.00
2023-03-21T12:08:15.590Z,2660.00
2023-03-21T12:09:17.026Z,2648.00
2023-03-21T12:10:15.621Z,2659.00
2023-03-21T12:11:15.520Z,2661.00
2023-03-21T12:12:15.482Z,2670.00
2023-03-21T12:13:15.539Z,2683.00
2023-03-21T12:14:15.402Z,2735.00
2023-03-21T12:15:15.492Z,2755.00
2023-03-21T12:16:15.424Z,2762.00
2023-03-21T12:17:15.307Z,2778.00
2023-03-21T12:18:16.142Z,2789.00
2023-03-21T12:19:15.331Z,2790.00
2023-03-21T12:20:15.231Z,2788.00
2023-03-21T12:21:15.181Z,2772.00
2023-03-21T12:22:15.173Z,2765.00
2023-03-21T12:23:15.146Z,2776.00
2023-03-21T12:24:15.079Z,2779.00
2023-03-21T12:25:17.850Z,2796.00
2023-03-21T12:26:15.007Z,2797.00
2023-03-21T12:27:15.183Z,2800.00
2023-03-21T12:28:19.111Z,2806.00
2023-03-21T12:29:16.073Z,2798.00
2023-03-21T12:30:14.859Z,2804.00
2023-03-21T12:31:14.846Z,2808.00
2023-03-21T12:32:14.816Z,2820.00
2023-03-21T12:33:14.748Z,2832.00
2023-03-21T12:34:14.713Z,2826.00
2023-03-21T12:35:14.695Z,2828.00
2023-03-21T12:36:14.705Z,2817.00
2023-03-21T12:37:14.616Z,2820.00
2023-03-21T12:38:14.634Z,2806.00
2023-03-21T12:39:14.568Z,2817.00
2023-03-21T12:40:14.537Z,2808.00
2023-03-21T12:41:14.491Z,2798.00
2023-03-21T12:42:14.416Z,2806.00
2023-03-21T12:43:14.498Z,2815.00
2023-03-21T12:44:14.360Z,2810.00
2023-03-21T12:45:15.732Z,2801.00
2023-03-21T12:46:14.323Z,2795.00
2023-03-21T12:47:14.260Z,2795.00
2023-03-21T12:48:14.321Z,2794.00
2023-03-21T12:49:14.199Z,2796.00
2023-03-21T12:50:14.171Z,2793.00
2023-03-21T12:51:14.169Z,2798.00
2023-03-21T12:52:14.099Z,2798.00
2023-03-21T12:53:14.053Z,2797.00
2023-03-21T12:54:14.022Z,2798.00
2023-03-21T12:55:14.011Z,2792.00
2023-03-21T12:56:13.965Z,2778.00
2023-03-21T12:57:13.947Z,2773.00
2023-03-21T12:58:13.862Z,2760.00
2023-03-21T12:59:13.920Z,2731.00
2023-03-21T13:00:13.801Z,2724.00
2023-03-21T13:01:13.880Z,2726.00
2023-03-21T13:02:13.765Z,2697.00
2023-03-21T13:03:13.746Z,2673.00
2023-03-21T13:04:13.735Z,2680.00
2023-03-21T13:05:13.663Z,2681.00
2023-03-21T13:06:13.712Z,2681.00
2023-03-21T13:07:13.608Z,2673.00
2023-03-21T13:08:13.579Z,2650.00
2023-03-21T13:09:13.536Z,2647.00
2023-03-21T13:10:13.519Z,2650.00
2023-03-21T13:11:13.476Z,2649.00
2023-03-21T13:12:13.450Z,2618.00
2023-03-21T13:13:13.389Z,2625.00
2023-03-21T13:14:13.351Z,2608.00
2023-03-21T13:15:23.239Z,2603.00
2023-03-21T13:16:14.318Z,2604.00
2023-03-21T13:17:13.357Z,2587.00
2023-03-21T13:18:13.249Z,2575.00
2023-03-21T13:19:13.221Z,2553.00
2023-03-21T13:20:13.171Z,2549.00
2023-03-21T13:21:13.146Z,2549.00
2023-03-21T13:22:13.113Z,2550.00
2023-03-21T13:23:13.095Z,2550.00
2023-03-21T13:24:13.048Z,2551.00
2023-03-21T13:25:13.032Z,2559.00
2023-03-21T13:26:12.991Z,2560.00
2023-03-21T13:27:13.232Z,2573.00
2023-03-21T13:28:12.920Z,2564.00
2023-03-21T13:29:12.892Z,2555.00
2023-03-21T13:30:12.921Z,2556.00
2023-03-21T13:31:12.947Z,2558.00
2023-03-21T13:32:12.877Z,2563.00
2023-03-21T13:33:12.761Z,2573.00
2023-03-21T13:34:12.745Z,2580.00
2023-03-21T13:35:12.708Z,2584.00
2023-03-21T13:36:12.735Z,2590.00
2023-03-21T13:37:12.784Z,2588.00